createdAt,value
2022-08-16T00:00:38.610Z,3.25
2022-08-16T00:03:13.251Z,3.13
2022-08-16T00:05:47.993Z,3.17
2022-08-16T00:08:35.804Z,3.30
2022-08-16T00:11:06.200Z,3.30
2022-08-16T00:13:41.904Z,3.22
2022-08-16T00:17:00.988Z,3.40
2022-08-16T00:18:59.598Z,3.25
2022-08-16T00:21:29.081Z,3.60
2022-08-16T00:23:59.087Z,3.10
2022-08-16T00:26:36.333Z,3.60
2022-08-16T00:29:15.348Z,3.55
2022-08-16T00:31:59.002Z,3.10
2022-08-16T00:34:52.499Z,3.65
2022-08-16T00:37:18.654Z,3.20
2022-08-16T00:39:57.378Z,3.55
2022-08-16T00:42:30.082Z,3.38
2022-08-16T00:45:08.437Z,3.00
2022-08-16T00:47:49.458Z,3.30
2022-08-16T00:50:20.301Z,3.25
2022-08-16T00:52:51.187Z,3.42
2022-08-16T00:55:23.214Z,3.40
2022-08-16T00:57:55.576Z,3.28
2022-08-16T01:00:30.046Z,3.22
2022-08-16T01:03:00.205Z,3.25
2022-08-16T01:05:29.108Z,3.10
2022-08-16T01:07:57.475Z,3.28
2022-08-16T01:10:33.531Z,3.90
2022-08-16T01:13:07.218Z,3.30
2022-08-16T01:15:43.588Z,3.60
2022-08-16T01:18:39.089Z,3.75
2022-08-16T01:21:15.282Z,3.33
2022-08-16T01:24:01.445Z,3.60
2022-08-16T01:26:34.658Z,3.45
2022-08-16T01:29:09.756Z,3.42
2022-08-16T01:31:42.913Z,3.22
2022-08-16T01:34:23.309Z,3.25
2022-08-16T01:37:00.412Z,3.42
2022-08-16T01:39:35.437Z,3.50
2022-08-16T01:42:07.799Z,3.50
2022-08-16T01:44:43.455Z,3.40
2022-08-16T01:47:12.196Z,3.60
2022-08-16T01:49:45.719Z,3.33
2022-08-16T01:52:30.600Z,2.97
2022-08-16T01:55:19.686Z,3.58
2022-08-16T01:57:53.698Z,3.38
2022-08-16T02:00:29.109Z,3.55
2022-08-16T02:02:58.967Z,3.28
2022-08-16T02:05:30.696Z,3.30
2022-08-16T02:08:01.252Z,3.35
2022-08-16T02:10:33.920Z,3.53
2022-08-16T02:13:04.100Z,3.03
2022-08-16T02:15:35.449Z,3.60
2022-08-16T02:18:12.693Z,3.47
2022-08-16T02:20:45.494Z,3.20
2022-08-16T02:23:17.139Z,3.50
2022-08-16T02:25:50.811Z,3.17
2022-08-16T02:28:23.654Z,3.30
2022-08-16T02:30:52.578Z,3.15
2022-08-16T02:33:24.708Z,3.55
2022-08-16T02:36:14.193Z,3.22
2022-08-16T02:38:42.891Z,3.22
2022-08-16T02:41:12.315Z,3.30
2022-08-16T02:43:41.258Z,3.20
2022-08-16T02:46:10.921Z,3.58
2022-08-16T02:48:49.397Z,3.00
2022-08-16T02:51:19.226Z,3.20
2022-08-16T02:53:51.760Z,3.53
2022-08-16T02:56:23.012Z,3.50
2022-08-16T02:58:53.532Z,3.40
2022-08-16T03:01:36.625Z,3.42
2022-08-16T03:04:40.101Z,3.30
2022-08-16T03:07:07.676Z,3.45
2022-08-16T03:09:48.903Z,3.30
2022-08-16T03:12:30.300Z,3.05
2022-08-16T03:15:05.815Z,3.40
2022-08-16T03:17:33.921Z,3.47
2022-08-16T03:20:05.069Z,3.25
2022-08-16T03:22:37.574Z,3.40
2022-08-16T03:25:13.958Z,3.40
2022-08-16T03:27:51.746Z,3.15
2022-08-16T03:30:22.464Z,3.25
2022-08-16T03:32:58.059Z,2.97
2022-08-16T03:35:33.433Z,3.30
2022-08-16T03:38:34.537Z,3.72
2022-08-16T03:41:03.035Z,3.22
2022-08-16T03:43:51.457Z,3.90
2022-08-16T03:46:44.537Z,3.50
2022-08-16T03:49:13.329Z,3.35
2022-08-16T03:51:43.972Z,3.60
2022-08-16T03:54:20.275Z,3.78
2022-08-16T03:56:57.267Z,3.33
2022-08-16T03:59:29.769Z,3.92
2022-08-16T04:02:00.957Z,3.58
2022-08-16T04:04:33.504Z,4.00
2022-08-16T04:07:04.315Z,3.00
2022-08-16T04:09:38.048Z,3.33
2022-08-16T04:12:11.085Z,3.83
2022-08-16T04:14:56.620Z,3.83
2022-08-16T04:17:26.918Z,3.78
2022-08-16T04:19:58.416Z,4.25
2022-08-16T04:22:29.387Z,3.25
2022-08-16T04:25:02.528Z,3.75
2022-08-16T04:27:35.652Z,3.30
2022-08-16T04:30:10.844Z,3.50
2022-08-16T04:32:44.258Z,3.78
2022-08-16T04:35:20.343Z,3.67
2022-08-16T04:37:54.051Z,3.60
2022-08-16T04:40:27.269Z,7.95
2022-08-16T04:42:56.977Z,3.80
2022-08-16T04:45:36.185Z,4.20
2022-08-16T04:48:08.594Z,3.42
2022-08-16T04:50:46.570Z,3.50
2022-08-16T04:53:19.190Z,3.60
2022-08-16T04:55:53.225Z,3.30
2022-08-16T04:58:45.043Z,3.35
2022-08-16T05:01:12.497Z,3.50
2022-08-16T05:04:00.688Z,3.30
2022-08-16T05:06:44.697Z,3.08
2022-08-16T05:09:18.825Z,3.20
2022-08-16T05:11:51.349Z,2.92
2022-08-16T05:14:20.186Z,2.90
2022-08-16T05:17:08.676Z,2.80
2022-08-16T05:19:39.486Z,2.92
2022-08-16T05:22:18.212Z,2.90
2022-08-16T05:24:54.873Z,2.83
2022-08-16T05:27:23.234Z,2.47
2022-08-16T05:30:00.142Z,2.55
2022-08-16T05:32:36.288Z,2.88
2022-08-16T05:35:10.874Z,2.63
2022-08-16T05:37:43.587Z,2.72
2022-08-16T05:40:15.709Z,2.60
2022-08-16T05:42:47.590Z,2.85
2022-08-16T05:45:21.360Z,2.70
2022-08-16T05:47:59.789Z,2.88
2022-08-16T05:50:34.758Z,2.65
2022-08-16T05:53:04.172Z,2.80
2022-08-16T05:55:40.800Z,3.28
2022-08-16T05:58:09.517Z,2.83
2022-08-16T06:00:57.843Z,2.75
2022-08-16T06:03:29.630Z,3.08
2022-08-16T06:06:08.500Z,2.75
2022-08-16T06:08:44.982Z,3.17
2022-08-16T06:11:16.296Z,3.30
2022-08-16T06:13:53.136Z,3.13
2022-08-16T06:33:59.257Z,2.60
2022-08-16T06:36:32.475Z,2.60
2022-08-16T06:39:21.968Z,2.50
2022-08-16T06:42:03.182Z,2.55
2022-08-16T06:44:52.125Z,2.60
2022-08-16T06:47:53.747Z,2.78
2022-08-16T06:50:29.907Z,2.97
2022-08-16T06:53:08.578Z,2.25
2022-08-16T06:55:40.137Z,2.35
2022-08-16T06:58:22.075Z,2.00
2022-08-16T07:00:53.801Z,1.90
2022-08-16T07:03:27.451Z,2.22
2022-08-16T07:05:58.880Z,2.05
2022-08-16T07:08:33.273Z,2.15
2022-08-16T07:11:01.704Z,1.98
2022-08-16T07:14:03.946Z,2.05
2022-08-16T07:16:21.931Z,1.90
2022-08-16T07:18:59.124Z,2.17
2022-08-16T07:21:45.713Z,1.80
2022-08-16T07:24:30.011Z,1.90
2022-08-16T07:27:01.399Z,1.80
2022-08-16T07:29:31.663Z,1.95
2022-08-16T07:32:01.591Z,2.45
2022-08-16T07:34:35.336Z,2.13
2022-08-16T07:37:08.169Z,1.90
2022-08-16T07:39:56.283Z,1.88
2022-08-16T07:42:28.685Z,2.15
2022-08-16T07:45:07.595Z,1.60
2022-08-16T07:47:41.944Z,2.00
2022-08-16T07:50:57.342Z,1.60
2022-08-16T07:53:01.979Z,1.60
2022-08-16T07:55:39.070Z,1.75
2022-08-16T07:58:35.061Z,1.73
2022-08-16T08:01:10.658Z,2.08
2022-08-16T08:03:49.344Z,1.92
2022-08-16T08:06:24.850Z,1.60
2022-08-16T08:08:57.224Z,1.73
2022-08-16T08:11:29.029Z,1.88
2022-08-16T08:14:03.841Z,1.80
2022-08-16T08:16:39.583Z,1.80
2022-08-16T08:19:19.619Z,1.88
2022-08-16T08:22:01.068Z,1.98
2022-08-16T08:24:44.028Z,2.40
2022-08-16T08:27:12.534Z,1.65
2022-08-16T08:30:48.897Z,1.90
2022-08-16T08:33:00.020Z,2.05
2022-08-16T08:35:32.202Z,2.03
2022-08-16T08:38:02.341Z,1.63
2022-08-16T08:40:33.720Z,1.80
2022-08-16T08:43:11.784Z,2.00
2022-08-16T08:45:49.323Z,1.98
2022-08-16T08:48:34.167Z,3.42
2022-08-16T08:51:09.658Z,2.13
2022-08-16T08:53:57.809Z,1.80
2022-08-16T08:56:35.127Z,2.10
2022-08-16T08:59:29.132Z,2.20
2022-08-16T09:01:58.702Z,2.97
2022-08-16T09:04:31.435Z,1.80
2022-08-16T09:07:01.694Z,1.90
2022-08-16T09:09:34.206Z,2.10
2022-08-16T09:12:31.260Z,1.67
2022-08-16T09:15:13.431Z,2.00
2022-08-16T09:17:51.891Z,2.35
2022-08-16T09:20:23.637Z,1.60
2022-08-16T09:22:54.714Z,1.80
2022-08-16T09:25:35.400Z,3.60
2022-08-16T09:28:08.804Z,2.17
2022-08-16T09:30:43.855Z,2.22
2022-08-16T09:33:14.488Z,2.30
2022-08-16T09:35:42.826Z,1.83
2022-08-16T09:38:31.452Z,1.60
2022-08-16T09:41:01.116Z,1.58
2022-08-16T09:43:58.067Z,1.42
2022-08-16T09:46:33.535Z,1.67
2022-08-16T09:49:08.488Z,1.92
2022-08-16T09:51:37.492Z,1.65
2022-08-16T09:54:06.067Z,1.70
2022-08-16T09:56:53.248Z,2.13
2022-08-16T09:59:25.425Z,1.83
2022-08-16T10:01:59.504Z,2.63
2022-08-16T10:04:30.370Z,3.10
2022-08-16T10:09:42.315Z,9.70
2022-08-16T10:12:34.352Z,1.88
2022-08-16T10:15:03.555Z,2.55
2022-08-16T10:20:06.842Z,2.90
2022-08-16T10:22:36.950Z,1.70
2022-08-16T10:25:09.844Z,2.08
2022-08-16T10:27:46.200Z,1.90
2022-08-16T10:30:24.873Z,1.77
2022-08-16T10:32:54.162Z,2.00
2022-08-16T10:35:22.770Z,1.88
2022-08-16T10:37:52.175Z,2.10
2022-08-16T10:40:29.033Z,1.73
2022-08-16T10:42:59.782Z,1.83
2022-08-16T10:45:36.606Z,1.83
2022-08-16T10:48:28.017Z,1.95
2022-08-16T10:50:57.854Z,1.83
2022-08-16T10:53:26.320Z,1.48
2022-08-16T10:56:01.801Z,1.80
2022-08-16T10:58:34.253Z,1.80
2022-08-16T11:03:57.281Z,1.95
2022-08-16T11:06:28.748Z,1.70
2022-08-16T11:14:34.387Z,1.90
2022-08-16T11:17:10.885Z,1.77
2022-08-16T11:22:46.905Z,1.98
2022-08-16T11:28:07.628Z,1.50
2022-08-16T11:30:38.817Z,2.10
2022-08-16T11:33:08.854Z,1.60
2022-08-16T11:38:51.298Z,1.90
2022-08-16T11:41:15.451Z,2.15
2022-08-16T11:43:43.692Z,2.65
2022-08-16T11:46:34.213Z,1.52
2022-08-16T11:49:07.611Z,2.22
2022-08-16T11:51:39.580Z,2.03
2022-08-16T11:58:51.709Z,1.92
2022-08-16T12:01:29.939Z,2.30
2022-08-16T12:04:17.793Z,1.65
2022-08-16T12:06:53.764Z,1.80
2022-08-16T12:09:24.088Z,2.28
2022-08-16T12:11:53.336Z,1.85
2022-08-16T12:14:22.996Z,2.22
2022-08-16T12:16:55.632Z,2.15
2022-08-16T12:19:36.805Z,2.13
2022-08-16T12:22:19.258Z,2.05
2022-08-16T12:24:52.052Z,2.00
2022-08-16T12:27:23.244Z,2.10
2022-08-16T12:29:52.367Z,1.90
2022-08-16T12:32:37.560Z,1.98
2022-08-16T12:35:11.983Z,1.98
2022-08-16T12:37:41.696Z,2.03
2022-08-16T12:40:22.446Z,2.03
2022-08-16T12:42:58.764Z,2.33
2022-08-16T12:45:30.672Z,2.40
2022-08-16T12:48:34.534Z,2.38
2022-08-16T12:51:13.359Z,2.20
2022-08-16T12:53:42.196Z,2.03
2022-08-16T12:56:13.830Z,2.10
2022-08-16T12:58:50.480Z,2.10
2022-08-16T13:01:22.372Z,2.60
2022-08-16T13:03:59.291Z,1.95
2022-08-16T13:06:39.862Z,2.00
2022-08-16T13:09:20.146Z,2.28
2022-08-16T13:11:59.841Z,2.33
2022-08-16T13:14:33.211Z,2.55
2022-08-16T13:17:05.197Z,1.92
2022-08-16T13:20:05.450Z,1.95
2022-08-16T13:22:25.872Z,2.30
2022-08-16T13:24:55.739Z,2.00
2022-08-16T13:27:59.206Z,2.10
2022-08-16T13:30:36.311Z,1.90
2022-08-16T13:33:01.430Z,2.20
2022-08-16T13:35:42.906Z,2.20
2022-08-16T13:38:25.173Z,2.50
2022-08-16T13:40:56.158Z,2.58
2022-08-16T13:43:26.439Z,2.50
2022-08-16T13:45:55.384Z,2.20
2022-08-16T13:48:24.497Z,2.45
2022-08-16T13:50:54.572Z,2.10
2022-08-16T13:53:24.776Z,2.10
2022-08-16T13:55:57.854Z,2.53
2022-08-16T13:58:34.978Z,1.95
2022-08-16T14:01:04.331Z,1.70
2022-08-16T14:03:38.613Z,2.00
2022-08-16T14:06:07.919Z,2.35
2022-08-16T14:08:42.319Z,2.03
2022-08-16T14:11:12.160Z,2.00
2022-08-16T14:13:41.447Z,2.17
2022-08-16T14:16:24.632Z,1.73
2022-08-16T14:19:02.454Z,2.00
2022-08-16T14:21:34.731Z,2.05
2022-08-16T14:24:16.756Z,2.08
2022-08-16T14:26:50.904Z,1.85
2022-08-16T14:29:20.992Z,2.13
2022-08-16T14:31:49.647Z,1.98
2022-08-16T14:34:25.725Z,2.15
2022-08-16T14:36:56.920Z,1.88
2022-08-16T14:39:26.086Z,2.20
2022-08-16T14:41:55.838Z,1.80
2022-08-16T14:44:26.065Z,1.80
2022-08-16T14:46:54.897Z,2.15
2022-08-16T14:49:24.018Z,2.25
2022-08-16T14:51:52.056Z,2.10
2022-08-16T14:54:20.267Z,2.38
2022-08-16T14:56:54.672Z,1.83
2022-08-16T15:02:35.206Z,2.20
2022-08-16T15:05:22.250Z,2.33
2022-08-16T15:07:57.052Z,1.90
2022-08-16T15:10:32.601Z,1.88
2022-08-16T15:25:02.140Z,2.10
2022-08-16T15:27:35.774Z,2.20
2022-08-16T15:30:58.279Z,2.22
2022-08-16T15:33:03.624Z,2.30
2022-08-16T15:35:33.414Z,1.95
2022-08-16T15:38:08.991Z,1.95
2022-08-16T15:40:57.705Z,2.00
2022-08-16T15:43:33.865Z,1.92
2022-08-16T15:46:35.439Z,2.20
2022-08-16T15:49:13.975Z,2.00
2022-08-16T15:51:43.554Z,1.85
2022-08-16T15:54:29.801Z,2.20
2022-08-16T15:57:10.893Z,2.47
2022-08-16T15:59:49.523Z,2.25
2022-08-16T16:02:31.704Z,2.20
2022-08-16T16:05:02.130Z,2.40
2022-08-16T16:07:33.436Z,2.17
2022-08-16T16:13:43.488Z,2.20
2022-08-16T16:16:13.208Z,2.28
2022-08-16T16:18:48.797Z,1.95
2022-08-16T16:21:20.314Z,2.28
2022-08-16T16:24:21.068Z,2.00
2022-08-16T16:26:51.614Z,2.30
2022-08-16T16:29:19.544Z,1.80
2022-08-16T16:31:59.144Z,2.08
2022-08-16T16:34:32.440Z,1.83
2022-08-16T16:37:03.528Z,2.20
2022-08-16T16:39:32.572Z,2.00
2022-08-16T16:42:00.657Z,2.13
2022-08-16T16:44:33.850Z,2.10
2022-08-16T16:47:06.750Z,2.20
2022-08-16T16:49:35.979Z,2.13
2022-08-16T16:52:10.128Z,2.38
2022-08-16T16:54:41.130Z,2.30
2022-08-16T16:57:29.594Z,2.10
2022-08-16T16:59:57.791Z,2.30
2022-08-16T17:02:46.373Z,2.30
2022-08-16T17:05:16.574Z,2.33
2022-08-16T17:07:44.744Z,2.47
2022-08-16T17:10:13.238Z,2.25
2022-08-16T17:13:05.283Z,2.05
2022-08-16T17:15:36.344Z,2.47
2022-08-16T17:19:16.604Z,2.03
2022-08-16T17:20:54.110Z,2.15
2022-08-16T17:23:23.204Z,2.28
2022-08-16T17:26:11.562Z,2.30
2022-08-16T17:28:58.201Z,2.30
2022-08-16T17:31:40.888Z,2.10
2022-08-16T17:34:29.544Z,2.58
2022-08-16T17:37:05.465Z,2.40
2022-08-16T17:39:59.713Z,2.05
2022-08-16T17:42:25.897Z,2.20
2022-08-16T17:44:54.512Z,2.05
2022-08-16T17:47:22.842Z,2.30
2022-08-16T17:49:50.924Z,2.50
2022-08-16T17:52:20.001Z,2.30
2022-08-16T17:54:47.900Z,2.33
2022-08-16T17:57:17.095Z,2.28
2022-08-16T17:59:44.904Z,1.90
2022-08-16T18:02:42.129Z,2.38
2022-08-16T18:05:00.630Z,2.15
2022-08-16T18:07:29.793Z,2.25
2022-08-16T18:09:57.595Z,2.53
2022-08-16T18:12:54.247Z,2.17
2022-08-16T18:15:18.142Z,2.50
2022-08-16T18:17:46.220Z,2.58
2022-08-16T18:20:35.152Z,2.47
2022-08-16T18:23:05.242Z,2.30
2022-08-16T18:25:33.013Z,2.97
2022-08-16T18:28:00.792Z,2.78
2022-08-16T18:30:28.623Z,3.08
2022-08-16T18:32:57.056Z,2.90
2022-08-16T18:35:24.839Z,2.60
2022-08-16T18:37:52.767Z,2.80
2022-08-16T18:40:22.056Z,2.50
2022-08-16T18:43:03.501Z,2.78
2022-08-16T18:45:36.951Z,2.30
2022-08-16T18:48:07.051Z,2.85
2022-08-16T18:51:03.941Z,2.95
2022-08-16T18:53:25.833Z,2.63
2022-08-16T18:55:57.313Z,3.08
2022-08-16T18:58:26.372Z,2.90
2022-08-16T19:00:57.588Z,2.92
2022-08-16T19:03:27.974Z,3.05
2022-08-16T19:05:58.417Z,3.08
2022-08-16T19:08:26.502Z,3.38
2022-08-16T19:10:56.860Z,3.05
2022-08-16T19:13:28.238Z,2.90
2022-08-16T19:15:56.939Z,2.88
2022-08-16T19:18:25.931Z,2.97
2022-08-16T19:20:55.636Z,3.25
2022-08-16T19:23:26.913Z,3.10
2022-08-16T19:25:59.989Z,3.05
2022-08-16T19:28:51.246Z,3.00
2022-08-16T19:31:21.445Z,3.20
2022-08-16T19:33:54.875Z,2.90
2022-08-16T19:36:31.055Z,2.88
2022-08-16T19:39:05.359Z,2.92
2022-08-16T19:41:36.965Z,3.40
2022-08-16T19:44:06.178Z,3.03
2022-08-16T19:46:34.311Z,3.05
2022-08-16T19:49:02.648Z,3.22
2022-08-16T19:51:31.412Z,2.78
2022-08-16T19:53:59.419Z,3.60
2022-08-16T19:56:27.305Z,3.30
2022-08-16T19:59:17.966Z,3.28
2022-08-16T20:01:46.241Z,2.90
2022-08-16T20:04:14.646Z,3.30
2022-08-16T20:06:43.485Z,3.10
2022-08-16T20:09:14.841Z,2.95
2022-08-16T20:11:44.606Z,2.92
2022-08-16T20:14:24.403Z,2.85
2022-08-16T20:16:56.189Z,3.20
2022-08-16T20:19:24.407Z,3.15
2022-08-16T20:21:52.513Z,3.33
2022-08-16T20:24:34.023Z,3.38
2022-08-16T20:27:06.110Z,3.17
2022-08-16T20:29:36.669Z,2.95
2022-08-16T20:32:05.693Z,2.95
2022-08-16T20:34:33.731Z,2.95
2022-08-16T20:37:01.519Z,3.33
2022-08-16T20:39:29.436Z,3.00
2022-08-16T20:41:57.379Z,3.00
2022-08-16T20:44:25.490Z,3.35
2022-08-16T20:46:54.683Z,3.33
2022-08-16T20:49:22.573Z,3.38
2022-08-16T20:51:55.894Z,3.25
2022-08-16T20:54:27.277Z,3.38
2022-08-16T20:56:55.127Z,3.20
2022-08-16T20:59:22.996Z,2.90
2022-08-16T21:01:51.045Z,2.95
2022-08-16T21:04:21.691Z,3.00
2022-08-16T21:06:54.314Z,2.72
2022-08-16T21:09:24.150Z,3.03
2022-08-16T21:11:53.871Z,2.97
2022-08-16T21:14:21.706Z,2.97
2022-08-16T21:16:49.558Z,2.75
2022-08-16T21:19:17.528Z,2.88
2022-08-16T21:21:47.456Z,3.25
2022-08-16T21:24:16.028Z,3.90
2022-08-16T21:26:53.056Z,3.10
2022-08-16T21:29:31.607Z,3.03
2022-08-16T21:32:13.752Z,3.10
2022-08-16T21:34:42.189Z,3.53
2022-08-16T21:37:12.101Z,3.08
2022-08-16T21:39:43.980Z,3.38
2022-08-16T21:42:14.539Z,3.00
2022-08-16T21:44:43.048Z,3.42
2022-08-16T21:47:10.938Z,3.20
2022-08-16T21:49:39.243Z,3.10
2022-08-16T21:52:08.819Z,3.10
2022-08-16T21:54:38.318Z,3.15
2022-08-16T21:57:10.566Z,3.17
2022-08-16T21:59:38.941Z,3.20
2022-08-16T22:02:07.086Z,3.30
2022-08-16T22:04:37.921Z,3.40
2022-08-16T22:07:07.285Z,3.17
2022-08-16T22:09:35.235Z,3.47
2022-08-16T22:12:05.323Z,3.25
2022-08-16T22:14:33.214Z,3.13
2022-08-16T22:17:01.146Z,3.10
2022-08-16T22:19:29.894Z,3.65
2022-08-16T22:21:57.849Z,3.20
2022-08-16T22:24:25.593Z,3.53
2022-08-16T22:26:53.422Z,3.38
2022-08-16T22:29:22.571Z,3.03
2022-08-16T22:31:50.429Z,3.50
2022-08-16T22:34:18.279Z,3.45
2022-08-16T22:36:46.274Z,3.40
2022-08-16T22:39:15.158Z,3.20
2022-08-16T22:41:45.607Z,3.50
2022-08-16T22:44:13.984Z,3.10
2022-08-16T22:46:43.383Z,3.13
2022-08-16T22:49:12.488Z,3.40
2022-08-16T22:51:41.230Z,3.45
2022-08-16T22:54:45.121Z,3.35
2022-08-16T22:56:57.715Z,3.35
2022-08-16T22:59:25.977Z,3.00
2022-08-16T23:01:55.479Z,2.97
2022-08-16T23:04:23.841Z,3.30
2022-08-16T23:06:52.085Z,3.17
2022-08-16T23:09:20.047Z,3.22
2022-08-16T23:11:47.808Z,3.50
2022-08-16T23:14:16.230Z,3.17
2022-08-16T23:16:47.105Z,3.53
2022-08-16T23:19:17.596Z,3.35
2022-08-16T23:21:48.297Z,3.40
2022-08-16T23:24:19.107Z,3.30
2022-08-16T23:26:49.102Z,3.15
2022-08-16T23:29:24.667Z,3.47
2022-08-16T23:31:56.272Z,3.58
2022-08-16T23:34:26.676Z,3.50
2022-08-16T23:36:54.761Z,3.47
2022-08-16T23:39:23.008Z,3.35
2022-08-16T23:41:51.840Z,3.50
2022-08-16T23:44:42.393Z,3.58
2022-08-16T23:47:07.538Z,3.03
2022-08-16T23:49:56.346Z,3.28
2022-08-16T23:52:40.576Z,3.05
2022-08-16T23:55:12.832Z,3.25
2022-08-16T23:57:40.579Z,3.25
